Barrington, New Jersey
Current Conditions -  °F | °C
As of 12:54 PM on Saturday 20 Dec 2014 (Local Time) from KPHL Reporting Station
Overcast Overcast  
Wind Chill: 30°   Ceiling: 3100
Heat Index: 35°   Visibility: 10mi
Dew Point: 20°   Wind: 6mph
Humidity: 54%   Direction: 330°NNW
Pressure: 30.29"   Gusts: NA
Location:  39.87°N, 75.05°W
Report Text: KPHL 201754Z 33005KT 10SM OVC031 02/M07 A3029 RMK AO2 SLP258 T00171067 10017 20006 55012
Loading
Personal Weather Stations






























Interactive Weather Map New forecast layout! Learn more

10-Day Weather Forecast

Advertisements
Track Severe Weather on mobile